Time;durP1;ratioP1;P1;durP2;ratioP2;P2;SDS_P1;SDS_P2;PMS_P1;PMS_P2;Temp;Humidity;BMP_temperature;BMP_pressure;BME280_temperature;BME280_humidity;BME280_pressure;Samples;Min_cycle;Max_cycle;Signal;HPM_P1;HPM_P2
2023/05/20 00:00:06;;;;;;;;;;;;;;;;;;4957463;28;19980;-83
2023/05/20 00:02:32;;;;;;;;;;;;;;;;;;4957590;28;19926;-84
2023/05/20 00:04:58;;;;;;;;;;;;;;;;;;4957488;28;19972;-84
2023/05/20 00:09:55;;;;;;;;;;;;;;;;;;4973392;28;19929;-83
2023/05/20 00:12:21;;;;;;;;;;;;;;;;;;4973360;28;20286;-83
2023/05/20 00:14:47;;;;;;;;;;;;;;;;;;4956992;28;19926;-84
2023/05/20 00:17:13;;;;;;;;;;;;;;;;;;4957491;28;19929;-83
2023/05/20 00:19:39;;;;;;;;;;;;;;;;;;4958947;28;19972;-83
2023/05/20 00:22:05;;;;;;;;;;;;;;;;;;4977681;28;20005;-83
2023/05/20 00:24:31;;;;;;;;;;;;;;;;;;4977423;28;20376;-83
2023/05/20 00:26:56;;;;;;;;;;;;;;;;;;4961027;28;19937;-83
2023/05/20 00:29:22;;;;;;;;;;;;;;;;;;4961065;28;20295;-83
2023/05/20 00:31:48;;;;;;;;;;;;;;;;;;4961246;28;19922;-83
2023/05/20 00:34:14;;;;;;;;;;;;;;;;;;4961149;28;19922;-83
2023/05/20 00:36:41;;;;;;;;;;;;;;;;;;4960843;28;19922;-83
2023/05/20 00:39:07;;;;;;;;;;;;;;;;;;4960855;28;20307;-83
2023/05/20 00:41:34;;;;;;;;;;;;;;;;;;4976762;28;19930;-83
2023/05/20 00:46:36;;;;;;;;;;;;;;;;;;4976724;28;19930;-83
2023/05/20 00:49:02;;;;;;;;;;;;;;;;;;4960503;28;20327;-83
2023/05/20 00:51:28;;;;;;;;;;;;;;;;;;4976547;28;19922;-83
2023/05/20 00:53:54;;;;;;;;;;;;;;;;;;4960393;28;19933;-82
2023/05/20 00:56:20;;;;;;;;;;;;;;;;;;4960495;28;20081;-83
2023/05/20 00:58:46;;;;;;;;;;;;;;;;;;4960444;28;19926;-83
2023/05/20 01:01:12;;;;;;;;;;;;;;;;;;4960030;28;20303;-83
2023/05/20 01:03:38;;;;;;;;;;;;;;;;;;4960148;28;19922;-83
2023/05/20 01:06:04;;;;;;;;;;;;;;;;;;4959972;28;20363;-83
2023/05/20 01:08:31;;;;;;;;;;;;;;;;;;4959913;28;19977;-83
2023/05/20 01:10:57;;;;;;;;;;;;;;;;;;4959927;28;19926;-83
2023/05/20 01:13:22;;;;;;;;;;;;;;;;;;4976106;28;20268;-83
2023/05/20 01:15:48;;;;;;;;;;;;;;;;;;4959729;28;20398;-83
2023/05/20 01:18:17;;;;;;;;;;;;;;;;;;4960336;28;20434;-83
2023/05/20 01:20:44;;;;;;;;;;;;;;;;;;4959793;28;19928;-83
2023/05/20 01:23:10;;;;;;;;;;;;;;;;;;4960339;28;19923;-83
2023/05/20 01:25:36;;;;;;;;;;;;;;;;;;4960069;28;19929;-83
2023/05/20 01:28:02;;;;;;;;;;;;;;;;;;4959781;28;19926;-83
2023/05/20 01:36:03;;;;;;;;;;;;;;;;;;4975815;28;20005;-83
2023/05/20 01:38:29;;;;;;;;;;;;;;;;;;4975849;28;20067;-83
2023/05/20 01:40:55;;;;;;;;;;;;;;;;;;4959610;28;19926;-83
2023/05/20 01:43:21;;;;;;;;;;;;;;;;;;4959676;28;19922;-83
2023/05/20 01:45:47;;;;;;;;;;;;;;;;;;4975779;28;19934;-83
2023/05/20 01:48:13;;;;;;;;;;;;;;;;;;4959490;28;19973;-83
2023/05/20 01:50:42;;;;;;;;;;;;;;;;;;4975581;28;19976;-83
2023/05/20 01:53:08;;;;;;;;;;;;;;;;;;4959486;28;19968;-83
2023/05/20 01:55:34;;;;;;;;;;;;;;;;;;4959741;28;20437;-83
2023/05/20 01:58:00;;;;;;;;;;;;;;;;;;4959926;28;19922;-84
2023/05/20 02:00:26;;;;;;;;;;;;;;;;;;4959320;28;19928;-83
2023/05/20 02:02:52;;;;;;;;;;;;;;;;;;4959382;28;20391;-83
2023/05/20 02:05:18;;;;;;;;;;;;;;;;;;4958912;28;19923;-83
2023/05/20 02:07:43;;;;;;;;;;;;;;;;;;4959161;28;20414;-83
2023/05/20 02:10:09;;;;;;;;;;;;;;;;;;4959000;28;19922;-83
2023/05/20 02:12:35;;;;;;;;;;;;;;;;;;4959030;28;20286;-84
2023/05/20 02:15:01;;;;;;;;;;;;;;;;;;4959148;28;20013;-83
2023/05/20 02:17:27;;;;;;;;;;;;;;;;;;4959093;28;19926;-83
2023/05/20 02:19:53;;;;;;;;;;;;;;;;;;4958810;28;19945;-83
2023/05/20 02:22:19;;;;;;;;;;;;;;;;;;4958995;28;19926;-83
2023/05/20 02:24:45;;;;;;;;;;;;;;;;;;4958834;28;19973;-82
2023/05/20 02:27:11;;;;;;;;;;;;;;;;;;4958807;28;19948;-83
2023/05/20 02:29:37;;;;;;;;;;;;;;;;;;4974845;28;20012;-83
2023/05/20 02:32:03;;;;;;;;;;;;;;;;;;4958876;28;20001;-83
2023/05/20 02:34:30;;;;;;;;;;;;;;;;;;4958961;28;19953;-83
2023/05/20 02:36:56;;;;;;;;;;;;;;;;;;4974771;28;19929;-83
2023/05/20 02:39:22;;;;;;;;;;;;;;;;;;4958481;28;20387;-83
2023/05/20 02:41:47;;;;;;;;;;;;;;;;;;4974241;28;19922;-83
2023/05/20 02:44:13;;;;;;;;;;;;;;;;;;4958344;28;19926;-83
2023/05/20 02:46:39;;;;;;;;;;;;;;;;;;4958378;28;19981;-83
2023/05/20 02:49:05;;;;;;;;;;;;;;;;;;4958452;28;19926;-83
2023/05/20 02:51:32;;;;;;;;;;;;;;;;;;4958292;28;19958;-83
2023/05/20 02:53:58;;;;;;;;;;;;;;;;;;4958362;28;19929;-83
2023/05/20 02:56:23;;;;;;;;;;;;;;;;;;4958207;28;19926;-83
2023/05/20 02:58:49;;;;;;;;;;;;;;;;;;4974338;28;20585;-83
2023/05/20 03:01:15;;;;;;;;;;;;;;;;;;4973942;28;19922;-82
2023/05/20 03:03:41;;;;;;;;;;;;;;;;;;4958049;28;20284;-83
2023/05/20 03:06:07;;;;;;;;;;;;;;;;;;4957977;28;20383;-83
2023/05/20 03:08:33;;;;;;;;;;;;;;;;;;4957895;28;19922;-83
2023/05/20 03:10:59;;;;;;;;;;;;;;;;;;4973892;28;20307;-83
2023/05/20 03:13:25;;;;;;;;;;;;;;;;;;4957880;28;19922;-83
2023/05/20 03:15:51;;;;;;;;;;;;;;;;;;4957936;28;19926;-83
2023/05/20 03:18:17;;;;;;;;;;;;;;;;;;4958206;28;20001;-82
2023/05/20 03:20:43;;;;;;;;;;;;;;;;;;4973500;28;19922;-83
2023/05/20 03:23:09;;;;;;;;;;;;;;;;;;4957866;28;20436;-83
2023/05/20 03:25:35;;;;;;;;;;;;;;;;;;4973780;28;19945;-82
2023/05/20 03:28:01;;;;;;;;;;;;;;;;;;4973845;28;19933;-82
2023/05/20 03:30:27;;;;;;;;;;;;;;;;;;4973526;28;19976;-83
2023/05/20 03:32:53;;;;;;;;;;;;;;;;;;4957575;28;20360;-83
2023/05/20 03:35:19;;;;;;;;;;;;;;;;;;4958005;28;19922;-83
2023/05/20 03:37:45;;;;;;;;;;;;;;;;;;4973758;28;19922;-83
2023/05/20 03:40:11;;;;;;;;;;;;;;;;;;4957264;28;19949;-83
2023/05/20 03:42:37;;;;;;;;;;;;;;;;;;4957714;28;20295;-83
2023/05/20 03:45:03;;;;;;;;;;;;;;;;;;4957490;28;19922;-83
2023/05/20 03:47:29;;;;;;;;;;;;;;;;;;4957362;28;20390;-83
2023/05/20 03:49:55;;;;;;;;;;;;;;;;;;4973493;28;19974;-83
2023/05/20 03:52:20;;;;;;;;;;;;;;;;;;4957528;28;19929;-83
2023/05/20 03:54:46;;;;;;;;;;;;;;;;;;4956669;28;19926;-83
2023/05/20 03:57:12;;;;;;;;;;;;;;;;;;4957303;28;19933;-82
2023/05/20 03:59:38;;;;;;;;;;;;;;;;;;4957254;28;19922;-82
2023/05/20 04:02:17;;;;;;;;;;;;;;;;;;4957631;28;19929;-83
2023/05/20 04:04:43;;;;;;;;;;;;;;;;;;4957686;28;19922;-83
2023/05/20 04:07:09;;;;;;;;;;;;;;;;;;4957085;28;20021;-83
2023/05/20 04:09:35;;;;;;;;;;;;;;;;;;4957172;28;19922;-83
2023/05/20 04:12:02;;;;;;;;;;;;;;;;;;4957167;28;20387;-83
2023/05/20 04:14:28;;;;;;;;;;;;;;;;;;4957167;28;19925;-83
2023/05/20 04:16:53;;;;;;;;;;;;;;;;;;4973289;28;19929;-83
2023/05/20 04:19:19;;;;;;;;;;;;;;;;;;4957312;28;19926;-83
2023/05/20 04:21:45;;;;;;;;;;;;;;;;;;4957111;28;19923;-83
2023/05/20 04:24:11;;;;;;;;;;;;;;;;;;4956995;28;19922;-83
2023/05/20 04:26:37;;;;;;;;;;;;;;;;;;4956986;28;19930;-83
2023/05/20 04:29:03;;;;;;;;;;;;;;;;;;4972994;28;19929;-84
2023/05/20 04:31:29;;;;;;;;;;;;;;;;;;4956831;28;19922;-84
2023/05/20 04:33:55;;;;;;;;;;;;;;;;;;4956873;28;19922;-83
2023/05/20 04:36:21;;;;;;;;;;;;;;;;;;4956941;28;19929;-84
2023/05/20 04:38:48;;;;;;;;;;;;;;;;;;4956973;28;20434;-83
2023/05/20 04:41:14;;;;;;;;;;;;;;;;;;4956747;28;19929;-83
2023/05/20 04:43:41;;;;;;;;;;;;;;;;;;4956927;28;19929;-83
2023/05/20 04:46:08;;;;;;;;;;;;;;;;;;4956870;28;20040;-83
2023/05/20 04:48:34;;;;;;;;;;;;;;;;;;4956807;28;19922;-83
2023/05/20 04:51:01;;;;;;;;;;;;;;;;;;4956693;28;20005;-83
2023/05/20 04:53:26;;;;;;;;;;;;;;;;;;4957293;28;19929;-83
2023/05/20 04:55:54;;;;;;;;;;;;;;;;;;4957017;28;19922;-83
2023/05/20 04:58:23;;;;;;;;;;;;;;;;;;4956903;28;20276;-83
2023/05/20 05:00:49;;;;;;;;;;;;;;;;;;4972675;28;19922;-83
2023/05/20 05:03:15;;;;;;;;;;;;;;;;;;4956705;28;20009;-83
2023/05/20 05:05:41;;;;;;;;;;;;;;;;;;4974113;28;19922;-83
2023/05/20 05:08:07;;;;;;;;;;;;;;;;;;4976448;28;19930;-83
2023/05/20 05:10:33;;;;;;;;;;;;;;;;;;4960283;28;20303;-83
2023/05/20 05:12:58;;;;;;;;;;;;;;;;;;4961594;28;19922;-83
2023/05/20 05:15:24;;;;;;;;;;;;;;;;;;4956798;29;19923;-83
2023/05/20 05:17:50;;;;;;;;;;;;;;;;;;4955461;28;19961;-83
2023/05/20 05:20:16;;;;;;;;;;;;;;;;;;4959933;28;19922;-82
2023/05/20 05:22:42;;;;;;;;;;;;;;;;;;4976095;28;20402;-83
2023/05/20 05:25:08;;;;;;;;;;;;;;;;;;4960169;28;19922;-83
2023/05/20 05:30:44;;;;;;;;;;;;;;;;;;4977180;28;19933;-83
2023/05/20 05:33:09;;;;;;;;;;;;;;;;;;4959955;28;19922;-83
2023/05/20 05:35:35;;;;;;;;;;;;;;;;;;4959871;28;19952;-83
2023/05/20 05:38:01;;;;;;;;;;;;;;;;;;4975759;28;19922;-84
2023/05/20 05:40:27;;;;;;;;;;;;;;;;;;4959512;28;19977;-83
2023/05/20 05:42:53;;;;;;;;;;;;;;;;;;4960039;28;20279;-83
2023/05/20 05:45:19;;;;;;;;;;;;;;;;;;4976154;28;19922;-85
2023/05/20 05:47:45;;;;;;;;;;;;;;;;;;4959504;28;19973;-84
2023/05/20 05:50:11;;;;;;;;;;;;;;;;;;4959412;28;19922;-83
2023/05/20 05:52:37;;;;;;;;;;;;;;;;;;4959574;28;19926;-84
2023/05/20 05:55:03;;;;;;;;;;;;;;;;;;4959440;28;20433;-83
2023/05/20 05:57:29;;;;;;;;;;;;;;;;;;4959574;28;19926;-84
2023/05/20 05:59:54;;;;;;;;;;;;;;;;;;4959421;28;19922;-84
2023/05/20 06:02:34;;;;;;;;;;;;;;;;;;4959306;28;19930;-84
2023/05/20 06:05:00;;;;;;;;;;;;;;;;;;4942796;28;19922;-84
2023/05/20 06:07:26;;;;;;;;;;;;;;;;;;4959264;28;19934;-84
2023/05/20 06:09:52;;;;;;;;;;;;;;;;;;4959012;28;19922;-85
2023/05/20 06:12:18;;;;;;;;;;;;;;;;;;4959076;28;19922;-84
2023/05/20 06:14:44;;;;;;;;;;;;;;;;;;4959063;28;19985;-84
2023/05/20 06:17:10;;;;;;;;;;;;;;;;;;4970574;28;19922;-84
2023/05/20 06:19:36;;;;;;;;;;;;;;;;;;4943639;29;19929;-83
2023/05/20 06:22:01;;;;;;;;;;;;;;;;;;4950193;28;19922;-83
2023/05/20 06:24:27;;;;;;;;;;;;;;;;;;4942957;28;19973;-83
2023/05/20 06:26:53;;;;;;;;;;;;;;;;;;4975030;28;19973;-83
2023/05/20 06:29:19;;;;;;;;;;;;;;;;;;4976276;28;19926;-83
2023/05/20 06:31:45;;;;;;;;;;;;;;;;;;4972786;28;19922;-87
2023/05/20 06:34:11;;;;;;;;;;;;;;;;;;4967831;28;19933;-87
2023/05/20 06:36:37;;;;;;;;;;;;;;;;;;4957323;28;20441;-87
2023/05/20 06:39:05;;;;;;;;;;;;;;;;;;4974309;28;20399;-87
2023/05/20 06:41:31;;;;;;;;;;;;;;;;;;4974239;28;21354;-87
2023/05/20 06:43:57;;;;;;;;;;;;;;;;;;4955614;28;19929;-87
2023/05/20 06:46:22;;;;;;;;;;;;;;;;;;4957104;28;19926;-88
2023/05/20 06:48:48;;;;;;;;;;;;;;;;;;4974396;28;19929;-87
2023/05/20 06:51:14;;;;;;;;;;;;;;;;;;4958320;28;19926;-87
2023/05/20 06:53:40;;;;;;;;;;;;;;;;;;4973244;28;20024;-87
2023/05/20 06:56:06;;;;;;;;;;;;;;;;;;4974192;28;19926;-87
2023/05/20 06:58:32;;;;;;;;;;;;;;;;;;4958410;28;19922;-88
2023/05/20 07:00:58;;;;;;;;;;;;;;;;;;4958129;28;20026;-88
2023/05/20 07:03:24;;;;;;;;;;;;;;;;;;4948302;29;20470;-88
2023/05/20 07:05:50;;;;;;;;;;;;;;;;;;4939242;29;19923;-88
2023/05/20 07:08:16;;;;;;;;;;;;;;;;;;4939850;28;20013;-88
2023/05/20 07:10:42;;;;;;;;;;;;;;;;;;4950700;28;20435;-92
2023/05/20 07:13:08;;;;;;;;;;;;;;;;;;4959451;28;19976;-90
2023/05/20 07:15:34;;;;;;;;;;;;;;;;;;4959813;28;19922;-91
2023/05/20 07:18:00;;;;;;;;;;;;;;;;;;4971975;28;19922;-90
2023/05/20 07:20:25;;;;;;;;;;;;;;;;;;4978484;28;20429;-92
2023/05/20 07:22:51;;;;;;;;;;;;;;;;;;4994950;28;19922;-91
2023/05/20 07:25:18;;;;;;;;;;;;;;;;;;4978208;28;19926;-91
2023/05/20 07:27:43;;;;;;;;;;;;;;;;;;4973388;28;19932;-91
2023/05/20 07:30:09;;;;;;;;;;;;;;;;;;4957086;28;20298;-90
2023/05/20 07:32:35;;;;;;;;;;;;;;;;;;4946512;29;19989;-90
2023/05/20 07:35:01;;;;;;;;;;;;;;;;;;4948133;28;19928;-91
2023/05/20 07:37:27;;;;;;;;;;;;;;;;;;4955510;28;20386;-91
2023/05/20 07:39:56;;;;;;;;;;;;;;;;;;4972664;28;19922;-90
2023/05/20 07:42:22;;;;;;;;;;;;;;;;;;4952938;28;19978;-90
2023/05/20 07:44:48;;;;;;;;;;;;;;;;;;4957186;28;20431;-90
2023/05/20 07:47:14;;;;;;;;;;;;;;;;;;4956953;28;20331;-90
2023/05/20 07:49:40;;;;;;;;;;;;;;;;;;4958185;28;19922;-90
2023/05/20 07:52:06;;;;;;;;;;;;;;;;;;4958442;28;19953;-91
2023/05/20 07:54:32;;;;;;;;;;;;;;;;;;4958066;28;19929;-91
2023/05/20 07:56:59;;;;;;;;;;;;;;;;;;4957108;28;20024;-91
2023/05/20 07:59:25;;;;;;;;;;;;;;;;;;4957539;28;19922;-90
2023/05/20 08:01:50;;;;;;;;;;;;;;;;;;4974002;28;19922;-91
2023/05/20 08:04:16;;;;;;;;;;;;;;;;;;4958093;28;20048;-91
2023/05/20 08:06:44;;;;;;;;;;;;;;;;;;4950592;28;19927;-90
2023/05/20 08:09:10;;;;;;;;;;;;;;;;;;4974039;28;19922;-90
2023/05/20 08:11:36;;;;;;;;;;;;;;;;;;4969955;28;19923;-89
2023/05/20 08:14:02;;;;;;;;;;;;;;;;;;4971514;28;19949;-91
2023/05/20 08:16:34;;;;;;;;;;;;;;;;;;4975030;28;19925;-89
2023/05/20 08:19:00;;;;;;;;;;;;;;;;;;4960046;28;19929;-90
2023/05/20 08:21:26;;;;;;;;;;;;;;;;;;4955522;28;20004;-90
2023/05/20 08:23:52;;;;;;;;;;;;;;;;;;4964185;28;19926;-91
2023/05/20 08:26:18;;;;;;;;;;;;;;;;;;4956965;28;19981;-89
2023/05/20 08:31:32;;;;;;;;;;;;;;;;;;4963685;28;20269;-90
2023/05/20 08:33:58;;;;;;;;;;;;;;;;;;4969703;28;19949;-90
2023/05/20 08:36:25;;;;;;;;;;;;;;;;;;4964765;28;19922;-92
2023/05/20 08:38:51;;;;;;;;;;;;;;;;;;4957529;28;20004;-89
2023/05/20 08:41:17;;;;;;;;;;;;;;;;;;4976061;28;19976;-90
2023/05/20 08:43:43;;;;;;;;;;;;;;;;;;4977379;28;20023;-91
2023/05/20 08:46:08;;;;;;;;;;;;;;;;;;4977443;28;20057;-91
2023/05/20 08:48:34;;;;;;;;;;;;;;;;;;4961251;28;20375;-90
2023/05/20 08:51:05;;;;;;;;;;;;;;;;;;4960321;28;19929;-91
2023/05/20 08:53:31;;;;;;;;;;;;;;;;;;4958321;28;19922;-91
2023/05/20 08:55:58;;;;;;;;;;;;;;;;;;4977513;28;20409;-91
2023/05/20 08:58:24;;;;;;;;;;;;;;;;;;4961127;28;19926;-90
2023/05/20 09:00:51;;;;;;;;;;;;;;;;;;4950884;29;20552;-90
2023/05/20 09:03:19;;;;;;;;;;;;;;;;;;4963768;28;19980;-91
2023/05/20 09:05:45;;;;;;;;;;;;;;;;;;4977606;28;19922;-90
2023/05/20 09:08:11;;;;;;;;;;;;;;;;;;4948999;28;19966;-90
2023/05/20 09:10:40;;;;;;;;;;;;;;;;;;4953410;28;20335;-91
2023/05/20 09:13:06;;;;;;;;;;;;;;;;;;4961161;28;19929;-91
2023/05/20 09:15:32;;;;;;;;;;;;;;;;;;4961321;28;19922;-91
2023/05/20 09:17:58;;;;;;;;;;;;;;;;;;4961111;28;19964;-91
2023/05/20 09:20:24;;;;;;;;;;;;;;;;;;4961000;28;19984;-90
2023/05/20 09:22:50;;;;;;;;;;;;;;;;;;4961055;28;19922;-90
2023/05/20 09:25:16;;;;;;;;;;;;;;;;;;4960752;28;19968;-91
2023/05/20 09:27:42;;;;;;;;;;;;;;;;;;4960788;28;20298;-90
2023/05/20 09:30:08;;;;;;;;;;;;;;;;;;4976825;28;19932;-91
2023/05/20 09:32:33;;;;;;;;;;;;;;;;;;4976710;28;19972;-91
2023/05/20 09:35:00;;;;;;;;;;;;;;;;;;4949122;28;19922;-92
2023/05/20 09:40:45;;;;;;;;;;;;;;;;;;4974149;28;20382;-91
2023/05/20 09:43:11;;;;;;;;;;;;;;;;;;4960787;28;19931;-91
2023/05/20 09:45:37;;;;;;;;;;;;;;;;;;4976912;28;19922;-92
2023/05/20 09:48:04;;;;;;;;;;;;;;;;;;4960391;28;19926;-91
2023/05/20 09:50:32;;;;;;;;;;;;;;;;;;4976347;28;21274;-90
2023/05/20 09:52:57;;;;;;;;;;;;;;;;;;4975644;28;19961;-91
2023/05/20 09:55:23;;;;;;;;;;;;;;;;;;4960546;28;19922;-91
2023/05/20 09:57:49;;;;;;;;;;;;;;;;;;4956124;28;19922;-90
2023/05/20 10:00:16;;;;;;;;;;;;;;;;;;4960190;28;19961;-91
2023/05/20 10:02:42;;;;;;;;;;;;;;;;;;4960875;28;19929;-90
2023/05/20 10:05:08;;;;;;;;;;;;;;;;;;4979335;28;19926;-90
2023/05/20 10:07:33;;;;;;;;;;;;;;;;;;4961926;28;19926;-91
2023/05/20 10:10:00;;;;;;;;;;;;;;;;;;4958145;29;19923;-91
2023/05/20 10:12:26;;;;;;;;;;;;;;;;;;4976925;28;19922;-91
2023/05/20 10:14:52;;;;;;;;;;;;;;;;;;4957157;28;19922;-89
2023/05/20 10:17:18;;;;;;;;;;;;;;;;;;4942610;28;19926;-91
2023/05/20 10:19:44;;;;;;;;;;;;;;;;;;4959795;28;19925;-91
2023/05/20 10:22:10;;;;;;;;;;;;;;;;;;4976488;28;20387;-91
2023/05/20 10:24:39;;;;;;;;;;;;;;;;;;4960257;28;19984;-91
2023/05/20 10:27:05;;;;;;;;;;;;;;;;;;4959930;28;19976;-91
2023/05/20 10:29:32;;;;;;;;;;;;;;;;;;4960024;28;19922;-91
2023/05/20 10:31:58;;;;;;;;;;;;;;;;;;4978697;28;19932;-92
2023/05/20 10:34:24;;;;;;;;;;;;;;;;;;4975823;28;19922;-91
2023/05/20 10:36:50;;;;;;;;;;;;;;;;;;4959714;28;20009;-90
2023/05/20 10:39:16;;;;;;;;;;;;;;;;;;4959796;28;19922;-91
2023/05/20 10:41:42;;;;;;;;;;;;;;;;;;4959481;28;19972;-91
2023/05/20 10:44:08;;;;;;;;;;;;;;;;;;4953953;29;19930;-90
2023/05/20 10:46:34;;;;;;;;;;;;;;;;;;4952944;28;19926;-91
2023/05/20 10:49:00;;;;;;;;;;;;;;;;;;4950772;29;19923;-91
2023/05/20 10:51:27;;;;;;;;;;;;;;;;;;4940052;29;19923;-91
2023/05/20 10:53:54;;;;;;;;;;;;;;;;;;4940220;29;19923;-91
2023/05/20 10:56:23;;;;;;;;;;;;;;;;;;4956225;29;19930;-92
2023/05/20 10:58:49;;;;;;;;;;;;;;;;;;4943968;29;19923;-92
2023/05/20 11:01:15;;;;;;;;;;;;;;;;;;4950241;28;19922;-90
2023/05/20 11:03:41;;;;;;;;;;;;;;;;;;4959308;28;20354;-91
2023/05/20 11:06:07;;;;;;;;;;;;;;;;;;4959094;28;19922;-91
2023/05/20 11:08:33;;;;;;;;;;;;;;;;;;4962326;28;19933;-91
2023/05/20 11:10:58;;;;;;;;;;;;;;;;;;4952017;28;19969;-91
2023/05/20 11:13:24;;;;;;;;;;;;;;;;;;4970944;28;19930;-91
2023/05/20 11:15:50;;;;;;;;;;;;;;;;;;4955665;29;19961;-92
2023/05/20 11:18:16;;;;;;;;;;;;;;;;;;4939528;29;20425;-89
2023/05/20 11:20:43;;;;;;;;;;;;;;;;;;4939483;29;19974;-89
2023/05/20 11:23:09;;;;;;;;;;;;;;;;;;4939501;29;19930;-92
2023/05/20 11:25:35;;;;;;;;;;;;;;;;;;4956900;28;19949;-92
2023/05/20 11:28:01;;;;;;;;;;;;;;;;;;4974614;28;19926;-92
2023/05/20 11:30:27;;;;;;;;;;;;;;;;;;4958362;28;19926;-91
2023/05/20 11:32:53;;;;;;;;;;;;;;;;;;4950649;29;20327;-90
2023/05/20 11:35:19;;;;;;;;;;;;;;;;;;4942756;28;19922;-91
2023/05/20 11:37:45;;;;;;;;;;;;;;;;;;4958429;28;19922;-91
2023/05/20 11:40:12;;;;;;;;;;;;;;;;;;4974398;28;19922;-91
2023/05/20 11:42:37;;;;;;;;;;;;;;;;;;4948710;29;20395;-91
2023/05/20 11:45:03;;;;;;;;;;;;;;;;;;4939337;29;19928;-91
2023/05/20 11:47:31;;;;;;;;;;;;;;;;;;4939021;29;19933;-90
2023/05/20 11:49:57;;;;;;;;;;;;;;;;;;4971386;28;19922;-91
2023/05/20 11:52:23;;;;;;;;;;;;;;;;;;4958466;28;19975;-92
2023/05/20 11:54:48;;;;;;;;;;;;;;;;;;4958425;28;19923;-92
2023/05/20 11:57:14;;;;;;;;;;;;;;;;;;4946235;28;19964;-91
2023/05/20 11:59:40;;;;;;;;;;;;;;;;;;4957933;28;20371;-92
2023/05/20 12:02:06;;;;;;;;;;;;;;;;;;4958599;28;20073;-90
2023/05/20 12:04:32;;;;;;;;;;;;;;;;;;4969028;28;19922;-90
2023/05/20 12:06:58;;;;;;;;;;;;;;;;;;4943459;28;19937;-91
2023/05/20 12:09:24;;;;;;;;;;;;;;;;;;4958200;28;20009;-91
2023/05/20 12:11:50;;;;;;;;;;;;;;;;;;4958288;28;19922;-91
2023/05/20 12:14:16;;;;;;;;;;;;;;;;;;4954928;29;19950;-91
2023/05/20 12:16:42;;;;;;;;;;;;;;;;;;4952495;28;19930;-91
2023/05/20 12:19:08;;;;;;;;;;;;;;;;;;4945434;29;19926;-91
2023/05/20 12:21:34;;;;;;;;;;;;;;;;;;4945016;29;19923;-92
2023/05/20 12:24:00;;;;;;;;;;;;;;;;;;4961202;29;19923;-90
2023/05/20 12:26:26;;;;;;;;;;;;;;;;;;4945076;29;19922;-91
2023/05/20 12:28:51;;;;;;;;;;;;;;;;;;4978923;28;19922;-91
2023/05/20 12:31:17;;;;;;;;;;;;;;;;;;4964385;28;19926;-92
2023/05/20 12:33:43;;;;;;;;;;;;;;;;;;4964364;28;19960;-91
2023/05/20 12:36:09;;;;;;;;;;;;;;;;;;4964644;28;19922;-92
2023/05/20 12:38:35;;;;;;;;;;;;;;;;;;4962198;28;19944;-91
2023/05/20 12:41:01;;;;;;;;;;;;;;;;;;4961320;28;19922;-91
2023/05/20 12:43:27;;;;;;;;;;;;;;;;;;4963976;28;20458;-91
2023/05/20 12:45:53;;;;;;;;;;;;;;;;;;4976471;28;19922;-91
2023/05/20 12:48:19;;;;;;;;;;;;;;;;;;4963900;28;19953;-91
2023/05/20 12:50:45;;;;;;;;;;;;;;;;;;4964187;28;19926;-91
2023/05/20 12:53:11;;;;;;;;;;;;;;;;;;4965401;28;20387;-92
2023/05/20 12:55:38;;;;;;;;;;;;;;;;;;4960952;28;19928;-91
2023/05/20 12:58:04;;;;;;;;;;;;;;;;;;4944917;29;19938;-92
2023/05/20 13:00:33;;;;;;;;;;;;;;;;;;4960750;28;19937;-90
2023/05/20 13:02:59;;;;;;;;;;;;;;;;;;4960934;28;19929;-90
2023/05/20 13:05:25;;;;;;;;;;;;;;;;;;4960962;28;19922;-92
2023/05/20 13:07:51;;;;;;;;;;;;;;;;;;4968878;28;19932;-91
2023/05/20 13:10:16;;;;;;;;;;;;;;;;;;4948319;29;20014;-91
2023/05/20 13:12:45;;;;;;;;;;;;;;;;;;4946011;28;19922;-91
2023/05/20 13:15:11;;;;;;;;;;;;;;;;;;4963520;28;20024;-91
2023/05/20 13:17:37;;;;;;;;;;;;;;;;;;4980107;28;20012;-91
2023/05/20 13:20:03;;;;;;;;;;;;;;;;;;4975911;28;20391;-91
2023/05/20 13:22:29;;;;;;;;;;;;;;;;;;4964435;28;20013;-91
2023/05/20 13:24:55;;;;;;;;;;;;;;;;;;4963882;28;19961;-90
2023/05/20 13:27:20;;;;;;;;;;;;;;;;;;4961996;28;19930;-92
2023/05/20 13:29:46;;;;;;;;;;;;;;;;;;4960524;28;19929;-91
2023/05/20 13:32:12;;;;;;;;;;;;;;;;;;4961776;28;20398;-92
2023/05/20 13:34:38;;;;;;;;;;;;;;;;;;4960365;28;19933;-91
2023/05/20 13:37:04;;;;;;;;;;;;;;;;;;4962821;28;19923;-92
2023/05/20 13:39:30;;;;;;;;;;;;;;;;;;4957736;29;19969;-91
2023/05/20 13:41:56;;;;;;;;;;;;;;;;;;4958471;28;19928;-91
2023/05/20 13:44:22;;;;;;;;;;;;;;;;;;4976684;28;20021;-89
2023/05/20 13:46:48;;;;;;;;;;;;;;;;;;4964217;28;20314;-91
2023/05/20 13:49:14;;;;;;;;;;;;;;;;;;4948739;28;19929;-91
2023/05/20 13:51:40;;;;;;;;;;;;;;;;;;4960314;28;19922;-92
2023/05/20 13:54:06;;;;;;;;;;;;;;;;;;4957878;28;19959;-93
2023/05/20 13:56:32;;;;;;;;;;;;;;;;;;4960084;28;19922;-90
2023/05/20 13:58:58;;;;;;;;;;;;;;;;;;4962837;28;19926;-92
2023/05/20 14:01:24;;;;;;;;;;;;;;;;;;4957970;28;19923;-92
2023/05/20 14:03:50;;;;;;;;;;;;;;;;;;4976310;28;19956;-92
2023/05/20 14:06:17;;;;;;;;;;;;;;;;;;4960319;28;19926;-92
2023/05/20 14:08:43;;;;;;;;;;;;;;;;;;4976232;28;19927;-90
2023/05/20 14:11:09;;;;;;;;;;;;;;;;;;4956793;28;20395;-90
2023/05/20 14:13:35;;;;;;;;;;;;;;;;;;4956841;29;19966;-91
2023/05/20 14:16:01;;;;;;;;;;;;;;;;;;4959695;28;20413;-91
2023/05/20 14:18:27;;;;;;;;;;;;;;;;;;4950294;28;20001;-91
2023/05/20 14:20:53;;;;;;;;;;;;;;;;;;4960664;28;19922;-90
2023/05/20 14:23:20;;;;;;;;;;;;;;;;;;4941214;28;19953;-91
2023/05/20 14:25:46;;;;;;;;;;;;;;;;;;4975846;28;19923;-91
2023/05/20 14:28:11;;;;;;;;;;;;;;;;;;4975674;28;19926;-90
2023/05/20 14:30:37;;;;;;;;;;;;;;;;;;4959505;28;19922;-91
2023/05/20 14:33:03;;;;;;;;;;;;;;;;;;4959756;28;19922;-91
2023/05/20 14:35:29;;;;;;;;;;;;;;;;;;4959627;28;19989;-91
2023/05/20 14:37:55;;;;;;;;;;;;;;;;;;4959161;28;19964;-92
2023/05/20 14:40:21;;;;;;;;;;;;;;;;;;4959371;28;20383;-90
2023/05/20 14:42:47;;;;;;;;;;;;;;;;;;4958366;28;19922;-90
2023/05/20 14:45:13;;;;;;;;;;;;;;;;;;4956985;28;19949;-91
2023/05/20 14:47:39;;;;;;;;;;;;;;;;;;4958092;28;19926;-89
2023/05/20 14:50:05;;;;;;;;;;;;;;;;;;4975408;28;19922;-90
2023/05/20 14:52:45;;;;;;;;;;;;;;;;;;4958032;28;19922;-91
2023/05/20 14:55:11;;;;;;;;;;;;;;;;;;4958186;28;19922;-92
2023/05/20 14:57:37;;;;;;;;;;;;;;;;;;4958551;28;19922;-91
2023/05/20 15:00:03;;;;;;;;;;;;;;;;;;4959001;28;19922;-90
2023/05/20 15:02:29;;;;;;;;;;;;;;;;;;4958950;28;19922;-91
2023/05/20 15:05:05;;;;;;;;;;;;;;;;;;4956020;28;19922;-90
2023/05/20 15:07:31;;;;;;;;;;;;;;;;;;4970979;28;19926;-90
2023/05/20 15:10:03;;;;;;;;;;;;;;;;;;4972520;28;19922;-90
2023/05/20 15:12:29;;;;;;;;;;;;;;;;;;4964928;28;19922;-92
2023/05/20 15:14:55;;;;;;;;;;;;;;;;;;4971898;28;19929;-91
2023/05/20 15:17:21;;;;;;;;;;;;;;;;;;4974239;28;20294;-91
2023/05/20 15:19:47;;;;;;;;;;;;;;;;;;4974585;28;19930;-91
2023/05/20 15:25:20;;;;;;;;;;;;;;;;;;4976079;28;20414;-92
2023/05/20 15:27:46;;;;;;;;;;;;;;;;;;4958723;28;20012;-90
2023/05/20 15:30:25;;;;;;;;;;;;;;;;;;4955115;28;20020;-90
2023/05/20 15:32:51;;;;;;;;;;;;;;;;;;4968932;28;19976;-90
2023/05/20 15:35:17;;;;;;;;;;;;;;;;;;4974635;28;20009;-91
2023/05/20 15:37:42;;;;;;;;;;;;;;;;;;4959235;28;20318;-91
2023/05/20 15:40:08;;;;;;;;;;;;;;;;;;4961571;28;19933;-91
2023/05/20 15:42:34;;;;;;;;;;;;;;;;;;4957855;28;20284;-90
2023/05/20 15:45:00;;;;;;;;;;;;;;;;;;4959160;28;19922;-91
2023/05/20 15:47:26;;;;;;;;;;;;;;;;;;4958217;28;19934;-91
2023/05/20 15:49:53;;;;;;;;;;;;;;;;;;4974140;28;19929;-90
2023/05/20 15:52:19;;;;;;;;;;;;;;;;;;4959232;28;20434;-90
2023/05/20 15:54:45;;;;;;;;;;;;;;;;;;4962554;28;20394;-91
2023/05/20 15:57:11;;;;;;;;;;;;;;;;;;4950564;28;19922;-91
2023/05/20 15:59:37;;;;;;;;;;;;;;;;;;4957532;28;19922;-92
2023/05/20 16:02:03;;;;;;;;;;;;;;;;;;4969275;28;20383;-91
2023/05/20 16:04:29;;;;;;;;;;;;;;;;;;4973609;28;19933;-87
2023/05/20 16:06:55;;;;;;;;;;;;;;;;;;4956855;28;19949;-87
2023/05/20 16:09:21;;;;;;;;;;;;;;;;;;4952961;28;19926;-88
2023/05/20 16:11:47;;;;;;;;;;;;;;;;;;4954939;28;19922;-88
2023/05/20 16:14:12;;;;;;;;;;;;;;;;;;4957514;28;19937;-89
2023/05/20 16:16:38;;;;;;;;;;;;;;;;;;4959889;28;20331;-89
2023/05/20 16:19:04;;;;;;;;;;;;;;;;;;4957555;28;20041;-90
2023/05/20 16:21:30;;;;;;;;;;;;;;;;;;4957372;28;19969;-89
2023/05/20 16:23:56;;;;;;;;;;;;;;;;;;4957484;28;19988;-89
2023/05/20 16:26:31;;;;;;;;;;;;;;;;;;4972891;28;20407;-89
2023/05/20 16:28:57;;;;;;;;;;;;;;;;;;4957464;28;19930;-89
2023/05/20 16:31:24;;;;;;;;;;;;;;;;;;4959132;28;20041;-89
2023/05/20 16:33:50;;;;;;;;;;;;;;;;;;4955046;28;20524;-88
2023/05/20 16:36:16;;;;;;;;;;;;;;;;;;4957210;28;19961;-89
2023/05/20 16:38:42;;;;;;;;;;;;;;;;;;4973536;28;19926;-89
2023/05/20 16:41:13;;;;;;;;;;;;;;;;;;4956684;28;19926;-90
2023/05/20 16:43:39;;;;;;;;;;;;;;;;;;4954044;28;19929;-89
2023/05/20 16:46:05;;;;;;;;;;;;;;;;;;4973163;28;19968;-89
2023/05/20 16:48:31;;;;;;;;;;;;;;;;;;4957148;28;20442;-89
2023/05/20 16:50:57;;;;;;;;;;;;;;;;;;4957191;28;19929;-90
2023/05/20 16:53:23;;;;;;;;;;;;;;;;;;4957618;28;20300;-89
2023/05/20 16:55:49;;;;;;;;;;;;;;;;;;4957514;28;19934;-89
2023/05/20 16:58:15;;;;;;;;;;;;;;;;;;4957640;28;20379;-89
2023/05/20 17:00:41;;;;;;;;;;;;;;;;;;4957395;28;19949;-89